Donzdorf Airport


Codes: EDPM/
Name: Donzdorf Airport
City: Donzdorf
Country: Germany
Elevation: 2274 ft.

Photos at Donzdorf Airport


   Photos courtesy of SpottingLog. You can add your own sightings and photos by signing up for a free trial today.



No photos found.

Weather at Donzdorf Airport


Time (UTC)DescriptionTempratureWindCloud coverageVisibilityPressureHumidity
16-Jun-2024 00:00Broken Clouds10°C4 mph, S62%10000m1011hPa84%
16-Jun-2024 03:00Broken Clouds9°C4 mph, S56%10000m1012hPa82%
16-Jun-2024 06:00Broken Clouds12°C7 mph, SW57%10000m1012hPa80%
16-Jun-2024 09:00Light Rain15°C9 mph, SW76%10000m1012hPa72%
16-Jun-2024 12:00Light Rain18°C9 mph, SW75%10000m1011hPa66%
16-Jun-2024 15:00Light Rain19°C7 mph, SW64%10000m1011hPa63%
16-Jun-2024 18:00Light Rain15°C7 mph, NW82%10000m1012hPa80%
16-Jun-2024 21:00Overcast Clouds12°C2 mph, S99%10000m1014hPa85%
17-Jun-2024 00:00Light Rain12°C4 mph, S99%10000m1015hPa92%
17-Jun-2024 03:00Overcast Clouds12°C4 mph, S99%10000m1015hPa90%
17-Jun-2024 06:00Overcast Clouds14°C4 mph, S100%10000m1016hPa86%
17-Jun-2024 09:00Light Rain18°C7 mph, SW100%10000m1015hPa73%
17-Jun-2024 12:00Light Rain17°C9 mph, W97%8185m1016hPa87%
17-Jun-2024 15:00Light Rain16°C7 mph, W100%10000m1016hPa86%
17-Jun-2024 18:00Overcast Clouds15°C2 mph, SE99%10000m1017hPa86%
17-Jun-2024 21:00Overcast Clouds14°C4 mph, S95%10000m1018hPa87%
18-Jun-2024 00:00Overcast Clouds12°C4 mph, S85%10000m1018hPa91%
18-Jun-2024 03:00Overcast Clouds11°C4 mph, SE95%10000m1017hPa94%
18-Jun-2024 06:00Broken Clouds16°C4 mph, SE71%10000m1016hPa86%
18-Jun-2024 09:00Broken Clouds21°C4 mph, S66%10000m1016hPa73%
18-Jun-2024 12:00Broken Clouds24°C4 mph, S79%10000m1015hPa65%
18-Jun-2024 15:00Overcast Clouds24°C4 mph, S93%10000m1014hPa70%
18-Jun-2024 18:00Overcast Clouds21°C4 mph, SE96%10000m1014hPa84%
18-Jun-2024 21:00Light Rain17°C7 mph, SW75%10000m1015hPa93%
19-Jun-2024 00:00Moderate Rain16°C7 mph, W78%10000m1017hPa96%
19-Jun-2024 03:00Light Rain15°C4 mph, NW92%10000m1017hPa97%
19-Jun-2024 06:00Overcast Clouds16°C4 mph, NW93%10000m1020hPa96%
19-Jun-2024 09:00Broken Clouds18°C4 mph, NW82%10000m1020hPa82%
19-Jun-2024 12:00Broken Clouds19°C7 mph, N83%10000m1021hPa79%
19-Jun-2024 15:00Scattered Clouds21°C4 mph, N44%10000m1020hPa72%
19-Jun-2024 18:00Scattered Clouds19°C4 mph, NE30%10000m1020hPa84%
19-Jun-2024 21:00Clear Sky15°C4 mph, E2%10000m1021hPa94%
20-Jun-2024 00:00Clear Sky14°C4 mph, SE1%10000m1020hPa93%
20-Jun-2024 03:00Clear Sky13°C7 mph, SE5%10000m1017hPa94%
20-Jun-2024 06:00Clear Sky17°C9 mph, SE6%10000m1016hPa88%
20-Jun-2024 09:00Few Clouds22°C7 mph, SE19%10000m1015hPa78%
20-Jun-2024 12:00Few Clouds26°C4 mph, SE11%10000m1013hPa69%
20-Jun-2024 15:00Broken Clouds27°C2 mph, E74%10000m1012hPa66%
20-Jun-2024 18:00Moderate Rain16°C25 mph, W82%3240m1014hPa93%
20-Jun-2024 21:00Moderate Rain17°C16 mph, SE100%10000m1010hPa87%